Time;durP1;ratioP1;P1;durP2;ratioP2;P2;SDS_P1;SDS_P2;PMS_P1;PMS_P2;Temp;Humidity;BMP_temperature;BMP_pressure;BME280_temperature;BME280_humidity;BME280_pressure;Samples;Min_cycle;Max_cycle;Signal;HPM_P1;HPM_P2
2021/12/27 00:01:51;;;;;;;0.10;0.10;;;;;;;0.62;88.91;100352.34;5049690;28;20029;-78
2021/12/27 00:04:17;;;;;;;0.10;0.10;;;;;;;0.59;88.75;100349.59;5057658;28;20032;-77
2021/12/27 00:06:42;;;;;;;0.20;0.20;;;;;;;0.57;88.88;100346.03;5057484;28;20032;-78
2021/12/27 00:09:07;;;;;;;0.13;0.13;;;;;;;0.57;89.14;100340.91;5057577;28;20052;-77
2021/12/27 00:11:33;;;;;;;0.50;0.50;;;;;;;0.59;88.93;100348.69;5056691;28;20044;-79
2021/12/27 00:13:58;;;;;;;0.20;0.20;;;;;;;0.60;88.99;100335.91;5068174;28;20047;-78
2021/12/27 00:16:23;;;;;;;0.10;0.10;;;;;;;0.63;89.40;100335.22;5059581;28;20025;-78
2021/12/27 00:18:49;;;;;;;0.20;0.20;;;;;;;0.64;89.11;100326.69;5057974;28;20135;-78
2021/12/27 00:21:14;;;;;;;0.20;0.20;;;;;;;0.64;89.19;100329.25;5058890;28;20094;-78
2021/12/27 00:23:40;;;;;;;0.13;0.13;;;;;;;0.64;89.19;100329.25;5058122;28;20025;-78
2021/12/27 00:26:05;;;;;;;0.20;0.20;;;;;;;0.65;88.88;100315.56;5053538;28;20036;-79
2021/12/27 00:28:33;;;;;;;0.20;0.20;;;;;;;0.68;89.29;100315.75;5038101;28;20044;-78
2021/12/27 00:30:58;;;;;;;0.10;0.10;;;;;;;0.70;89.25;100318.41;5037639;28;20024;-77
2021/12/27 00:33:24;;;;;;;0.20;0.20;;;;;;;0.71;89.40;100313.38;5037978;28;20280;-77
2021/12/27 00:35:49;;;;;;;0.20;0.20;;;;;;;0.81;89.21;100301.91;5038695;28;20028;-78
2021/12/27 00:38:15;;;;;;;0.23;0.23;;;;;;;0.82;89.04;100301.13;5038584;28;20033;-77
2021/12/27 00:40:40;;;;;;;0.00;0.00;;;;;;;0.83;89.25;100295.16;5050061;28;20025;-78
2021/12/27 00:43:06;;;;;;;0.10;0.10;;;;;;;0.85;89.09;100298.72;5058114;28;20040;-78
2021/12/27 00:45:31;;;;;;;0.10;0.10;;;;;;;0.82;89.25;100301.13;5057259;28;20031;-78
2021/12/27 00:47:57;;;;;;;0.10;0.10;;;;;;;0.79;89.09;100296.66;5057927;28;20047;-77
2021/12/27 00:50:22;;;;;;;0.30;0.30;;;;;;;0.80;89.25;100292.38;5057574;28;20028;-77
2021/12/27 00:52:49;;;;;;;0.10;0.10;;;;;;;0.86;89.42;100287.59;5056514;28;20021;-78
2021/12/27 00:55:15;;;;;;;0.10;0.10;;;;;;;0.85;89.24;100282.38;5037054;28;20108;-77
2021/12/27 00:57:41;;;;;;;0.27;0.27;;;;;;;0.90;89.53;100275.78;5036664;28;20272;-77
2021/12/27 01:00:13;;;;;;;0.10;0.10;;;;;;;0.88;89.19;100282.53;5036849;28;20283;-78
2021/12/27 01:02:39;;;;;;;0.20;0.20;;;;;;;0.87;89.09;100271.31;5037669;28;20029;-76
2021/12/27 01:05:05;;;;;;;0.10;0.10;;;;;;;0.87;89.19;100279.06;5037723;28;20394;-77
2021/12/27 01:07:30;;;;;;;0.10;0.10;;;;;;;0.87;89.71;100265.28;5044697;28;20669;-78
2021/12/27 01:10:22;;;;;;;0.10;0.10;;;;;;;0.87;89.58;100271.31;5057236;28;20025;-77
2021/12/27 01:17:42;;;;;;;0.10;0.10;;;;;;;0.94;89.81;100270.00;5057211;28;20282;-77
2021/12/27 01:20:12;;;;;;;0.10;0.10;;;;;;;0.97;89.80;100265.03;5057215;28;20297;-78
2021/12/27 01:22:38;;;;;;;0.10;0.10;;;;;;;0.99;89.59;100257.38;5057274;28;20345;-78
2021/12/27 01:25:06;;;;;;;0.30;0.30;;;;;;;0.96;89.86;100258.97;5057377;28;20319;-78
2021/12/27 01:27:31;;;;;;;0.30;0.30;;;;;;;0.96;89.68;100263.25;5057378;28;20029;-78
2021/12/27 01:29:57;;;;;;;0.10;0.10;;;;;;;0.96;89.85;100261.53;5056986;28;20272;-77
2021/12/27 01:32:25;;;;;;;0.07;0.07;;;;;;;0.94;89.78;100265.72;5057516;28;20074;-78
2021/12/27 01:34:50;;;;;;;0.10;0.10;;;;;;;0.96;89.73;100247.78;5044684;28;20079;-78
2021/12/27 01:37:18;;;;;;;0.10;0.10;;;;;;;0.97;90.11;100244.38;5037910;28;20312;-78
2021/12/27 01:39:43;;;;;;;0.07;0.07;;;;;;;1.00;90.08;100236.81;5037427;28;20100;-78
2021/12/27 01:42:09;;;;;;;0.10;0.10;;;;;;;1.02;89.99;100236.91;5036415;28;20554;-77
2021/12/27 01:44:34;;;;;;;0.10;0.10;;;;;;;1.04;90.00;100240.47;5036123;28;20363;-78
2021/12/27 01:47:00;;;;;;;0.10;0.10;;;;;;;1.09;90.08;100239.03;5037029;28;20464;-79
2021/12/27 01:49:26;;;;;;;0.10;0.10;;;;;;;1.10;90.53;100238.25;5020003;28;20461;-80
2021/12/27 01:51:51;;;;;;;0.10;0.10;;;;;;;1.10;89.99;100243.41;5036719;28;20021;-78
2021/12/27 01:54:16;;;;;;;0.10;0.10;;;;;;;1.11;90.04;100241.72;5037517;28;20025;-78
2021/12/27 01:56:42;;;;;;;0.10;0.10;;;;;;;1.13;90.15;100243.59;5037202;28;20029;-78
2021/12/27 01:59:07;;;;;;;0.47;0.47;;;;;;;1.15;90.08;100241.06;5036635;28;20057;-78
2021/12/27 02:01:32;;;;;;;0.10;0.10;;;;;;;1.15;90.26;100247.13;5055355;28;20039;-78
2021/12/27 02:03:58;;;;;;;0.03;0.03;;;;;;;1.15;90.24;100246.25;5057148;28;20029;-80
2021/12/27 02:06:25;;;;;;;0.10;0.10;;;;;;;1.14;90.21;100244.47;5056761;28;20021;-79
2021/12/27 02:08:51;;;;;;;0.10;0.10;;;;;;;1.15;90.05;100244.56;5055962;28;20299;-78
2021/12/27 02:11:17;;;;;;;0.10;0.10;;;;;;;1.15;90.28;100243.66;5056404;28;20433;-78
2021/12/27 02:13:45;;;;;;;0.10;0.10;;;;;;;1.18;90.26;100241.28;5058413;28;20714;-79
2021/12/27 02:16:14;;;;;;;0.10;0.10;;;;;;;1.19;90.19;100243.03;5058445;28;20558;-79
2021/12/27 02:18:40;;;;;;;0.10;0.10;;;;;;;1.20;90.22;100256.00;5060054;28;20679;-79
2021/12/27 02:21:06;;;;;;;0.10;0.10;;;;;;;1.24;90.32;100249.34;5060615;28;20283;-78
2021/12/27 02:23:38;;;;;;;0.30;0.30;;;;;;;1.27;90.19;100252.09;5060537;28;20654;-80
2021/12/27 02:26:04;;;;;;;0.10;0.10;;;;;;;1.28;90.33;100247.81;5060717;28;20275;-80
2021/12/27 02:28:29;;;;;;;0.20;0.20;;;;;;;1.27;90.25;100243.47;5058879;28;20295;-79
2021/12/27 02:30:54;;;;;;;0.10;0.10;;;;;;;1.30;90.16;100244.53;5060148;28;20056;-78
2021/12/27 02:33:20;;;;;;;0.13;0.13;;;;;;;1.31;90.17;100240.28;5060534;28;20048;-79
2021/12/27 02:35:49;;;;;;;0.20;0.20;;;;;;;1.33;90.23;100248.97;5059175;28;20071;-78
2021/12/27 02:38:18;;;;;;;0.10;0.10;;;;;;;1.34;90.27;100240.44;5047565;28;20029;-79
2021/12/27 02:40:43;;;;;;;0.10;0.10;;;;;;;1.34;90.28;100243.91;5039537;28;20283;-78
2021/12/27 02:43:12;;;;;;;0.10;0.10;;;;;;;1.35;90.25;100237.94;5039155;28;20276;-78
2021/12/27 02:45:40;;;;;;;0.20;0.20;;;;;;;1.37;90.35;100245.78;5039087;28;20029;-79
2021/12/27 02:48:06;;;;;;;0.10;0.10;;;;;;;1.37;90.28;100233.75;5039994;28;20283;-79
2021/12/27 02:50:33;;;;;;;0.10;0.10;;;;;;;1.43;90.29;100237.47;5042513;28;20276;-79
2021/12/27 02:53:00;;;;;;;0.20;0.20;;;;;;;1.43;90.22;100229.75;5059957;28;20271;-79
2021/12/27 02:55:26;;;;;;;0.20;0.20;;;;;;;1.49;90.31;100232.63;5059950;28;20291;-79
2021/12/27 02:57:51;;;;;;;0.20;0.20;;;;;;;1.55;90.45;100221.78;5059103;28;20275;-79
2021/12/27 03:00:23;;;;;;;0.10;0.10;;;;;;;1.52;90.34;100217.34;5058593;28;20295;-79
2021/12/27 03:02:50;;;;;;;0.10;0.10;;;;;;;1.48;90.26;100210.22;5059111;28;20044;-79
2021/12/27 03:05:17;;;;;;;0.00;0.00;;;;;;;1.56;90.20;100218.41;5056439;28;20302;-78
2021/12/27 03:07:44;;;;;;;0.10;0.10;;;;;;;1.59;90.14;100213.41;5059999;28;20287;-79
2021/12/27 03:10:11;;;;;;;0.10;0.10;;;;;;;1.55;89.83;100209.75;5058953;28;20275;-80
2021/12/27 03:12:38;;;;;;;0.20;0.20;;;;;;;1.54;90.24;100208.00;5059175;28;20282;-81
2021/12/27 03:15:08;;;;;;;0.10;0.10;;;;;;;1.49;90.30;100202.56;5059135;28;20291;-79
2021/12/27 03:17:35;;;;;;;0.20;0.20;;;;;;;1.47;90.33;100195.56;5059985;28;20353;-80
2021/12/27 03:20:03;;;;;;;0.10;0.10;;;;;;;1.54;90.73;100189.91;5058443;28;20609;-80
2021/12/27 03:22:29;;;;;;;0.30;0.30;;;;;;;1.55;90.23;100190.81;5043683;28;20275;-79
2021/12/27 03:24:54;;;;;;;0.10;0.10;;;;;;;1.62;90.39;100191.22;5044929;28;20350;-79
2021/12/27 03:27:19;;;;;;;0.20;0.20;;;;;;;1.62;90.28;100188.63;5065975;28;20029;-79
2021/12/27 03:29:45;;;;;;;0.30;0.30;;;;;;;1.61;90.20;100185.97;5064822;28;20056;-81
2021/12/27 03:32:10;;;;;;;0.30;0.30;;;;;;;1.62;90.50;100180.91;5062088;28;20029;-79
2021/12/27 03:34:41;;;;;;;0.10;0.10;;;;;;;1.61;90.34;100184.28;5039201;28;20295;-81
2021/12/27 03:37:08;;;;;;;0.10;0.10;;;;;;;1.62;90.29;100187.78;5026607;28;20441;-79
2021/12/27 03:39:33;;;;;;;0.20;0.20;;;;;;;1.60;90.32;100185.09;5046751;28;20355;-80
2021/12/27 03:41:59;;;;;;;0.10;0.10;;;;;;;1.60;90.51;100177.34;5045886;28;20371;-81
2021/12/27 03:44:24;;;;;;;0.13;0.13;;;;;;;1.60;90.50;100171.28;5022733;28;20097;-81
2021/12/27 03:46:49;;;;;;;0.10;0.10;;;;;;;1.61;90.48;100175.63;5042052;28;20029;-80
2021/12/27 03:49:15;;;;;;;0.00;0.00;;;;;;;1.63;90.44;100176.63;5039385;28;20031;-80
2021/12/27 03:51:43;;;;;;;0.10;0.10;;;;;;;1.67;89.85;100175.97;5037638;28;20048;-80
2021/12/27 03:54:09;;;;;;;0.23;0.23;;;;;;;1.70;90.57;100175.25;5038950;28;20028;-82
2021/12/27 03:56:34;;;;;;;0.13;0.13;;;;;;;1.75;90.50;100176.41;5037957;28;20396;-81
2021/12/27 03:59:19;;;;;;;0.20;0.20;;;;;;;1.75;90.28;100184.16;5039015;28;20303;-80
2021/12/27 04:01:45;;;;;;;0.10;0.10;;;;;;;1.73;90.52;100173.72;5037924;28;20029;-81
2021/12/27 04:04:10;;;;;;;0.10;0.10;;;;;;;1.73;90.50;100166.00;5038201;28;20276;-81
2021/12/27 04:06:35;;;;;;;0.10;0.10;;;;;;;1.74;90.55;100159.16;5047522;28;20316;-81
2021/12/27 04:09:01;;;;;;;0.10;0.10;;;;;;;1.76;90.43;100165.28;5057914;28;20418;-82
2021/12/27 04:11:28;;;;;;;0.10;0.10;;;;;;;1.74;90.53;100157.44;5058426;28;20127;-80
2021/12/27 04:13:53;;;;;;;0.03;0.03;;;;;;;1.73;90.62;100162.50;5058794;28;20350;-80
2021/12/27 04:16:18;;;;;;;0.10;0.10;;;;;;;1.73;90.54;100154.75;5057354;28;20362;-81
2021/12/27 04:18:44;;;;;;;0.17;0.17;;;;;;;1.74;90.53;100159.16;5058255;28;20021;-81
2021/12/27 04:21:09;;;;;;;0.10;0.10;;;;;;;1.75;90.54;100153.19;5053746;28;20025;-81
2021/12/27 04:23:34;;;;;;;0.10;0.10;;;;;;;1.76;90.48;100152.38;5037461;28;20079;-79
2021/12/27 04:26:00;;;;;;;0.10;0.10;;;;;;;1.76;90.69;100144.63;5039238;28;20026;-80
2021/12/27 04:28:25;;;;;;;0.10;0.10;;;;;;;1.78;90.42;100149.06;5037939;28;20396;-81
2021/12/27 04:30:51;;;;;;;0.50;0.50;;;;;;;1.81;90.67;100145.72;5037417;28;20060;-81
2021/12/27 04:33:16;;;;;;;0.30;0.30;;;;;;;1.81;91.03;100137.13;5037688;28;20068;-80
2021/12/27 04:35:42;;;;;;;0.27;0.27;;;;;;;1.84;90.72;100129.50;5038590;28;20064;-81
2021/12/27 04:38:08;;;;;;;0.10;0.10;;;;;;;1.92;90.56;100131.69;5052125;28;20646;-80
2021/12/27 04:40:37;;;;;;;0.10;0.10;;;;;;;1.99;90.76;100129.44;5058903;28;20024;-80
2021/12/27 04:43:06;;;;;;;0.10;0.10;;;;;;;1.99;90.81;100130.31;5060144;28;20271;-82
2021/12/27 04:45:32;;;;;;;0.10;0.10;;;;;;;2.00;90.80;100124.34;5057532;28;20395;-81
2021/12/27 04:47:57;;;;;;;0.10;0.10;;;;;;;2.01;90.88;100126.13;5059145;28;20060;-80
2021/12/27 04:50:23;;;;;;;0.10;0.10;;;;;;;2.01;90.85;100120.97;5059317;28;20107;-81
2021/12/27 04:52:52;;;;;;;0.30;0.30;;;;;;;2.03;90.81;100124.50;5057602;28;20278;-80
2021/12/27 04:55:19;;;;;;;0.10;0.10;;;;;;;2.02;90.63;100124.41;5024320;28;20403;-80
2021/12/27 04:57:44;;;;;;;0.20;0.20;;;;;;;2.01;90.71;100131.31;5046604;28;20056;-80
2021/12/27 05:00:10;;;;;;;0.20;0.20;;;;;;;2.01;90.63;100128.72;5067071;28;20028;-80
2021/12/27 05:02:36;;;;;;;0.10;0.10;;;;;;;2.03;90.57;100126.19;5068595;28;20037;-78
2021/12/27 05:05:01;;;;;;;0.00;0.00;;;;;;;2.03;90.60;100114.19;5068571;28;20017;-80
2021/12/27 05:07:27;;;;;;;0.00;0.00;;;;;;;2.03;90.63;100111.59;5067940;28;20033;-80
2021/12/27 05:09:52;;;;;;;0.20;0.20;;;;;;;2.04;90.80;100103.03;5065360;28;20076;-79
2021/12/27 05:12:17;;;;;;;0.33;0.33;;;;;;;2.08;90.70;100113.50;5069232;28;20025;-80
2021/12/27 05:14:43;;;;;;;0.20;0.20;;;;;;;2.09;90.63;100108.44;5068534;28;20048;-81
2021/12/27 05:17:08;;;;;;;0.10;0.10;;;;;;;2.11;90.89;100106.81;5069205;28;20060;-80
2021/12/27 05:19:33;;;;;;;0.00;0.00;;;;;;;2.12;90.59;100103.41;5064462;28;20033;-81
2021/12/27 05:21:59;;;;;;;0.07;0.07;;;;;;;2.13;91.03;100107.75;5060008;28;20094;-81
2021/12/27 05:24:27;;;;;;;0.00;0.00;;;;;;;2.16;90.52;100110.53;5040880;28;20029;-80
2021/12/27 05:26:52;;;;;;;0.10;0.10;;;;;;;2.14;90.91;100103.50;5038032;28;20025;-81
2021/12/27 05:29:17;;;;;;;0.03;0.03;;;;;;;2.14;91.04;100098.34;5037839;28;20047;-80
2021/12/27 05:31:43;;;;;;;0.10;0.10;;;;;;;2.14;90.77;100099.22;5037416;28;20044;-80
2021/12/27 05:34:10;;;;;;;0.10;0.10;;;;;;;2.15;90.91;100093.25;5037787;28;20029;-79
2021/12/27 05:36:35;;;;;;;0.07;0.07;;;;;;;2.16;90.98;100082.09;5037058;28;20068;-81
2021/12/27 05:39:00;;;;;;;0.10;0.10;;;;;;;2.18;90.86;100075.31;5036697;28;20327;-80
2021/12/27 05:41:26;;;;;;;0.00;0.00;;;;;;;2.18;90.85;100080.47;5037417;28;20029;-80
2021/12/27 05:43:51;;;;;;;0.10;0.10;;;;;;;2.23;90.92;100080.69;5037454;28;20384;-80
2021/12/27 05:46:17;;;;;;;0.10;0.10;;;;;;;2.23;90.82;100083.28;5036584;28;20319;-81
2021/12/27 05:48:42;;;;;;;0.10;0.10;;;;;;;2.23;90.59;100091.03;5040506;28;20044;-81
2021/12/27 05:51:08;;;;;;;0.10;0.10;;;;;;;2.25;90.97;100093.72;5041812;28;20082;-81
2021/12/27 05:53:33;;;;;;;0.10;0.10;;;;;;;2.26;90.99;100095.47;5040628;28;20030;-79
2021/12/27 05:55:58;;;;;;;0.10;0.10;;;;;;;2.29;91.13;100101.69;5042115;28;20068;-80
2021/12/27 05:58:25;;;;;;;0.00;0.00;;;;;;;2.35;90.98;100089.91;5041343;28;20304;-80
2021/12/27 06:00:51;;;;;;;0.10;0.10;;;;;;;2.37;91.04;100096.03;5040349;28;20388;-80
2021/12/27 06:03:16;;;;;;;0.10;0.10;;;;;;;2.41;90.99;100100.50;5040967;28;20044;-81
2021/12/27 06:05:41;;;;;;;0.10;0.10;;;;;;;2.49;91.11;100104.34;5040674;28;20025;-81
2021/12/27 06:08:07;;;;;;;0.10;0.10;;;;;;;2.51;91.19;100102.75;5052985;28;20401;-81
2021/12/27 06:10:32;;;;;;;0.10;0.10;;;;;;;2.53;90.96;100100.22;5058377;28;20114;-82
2021/12/27 06:12:58;;;;;;;0.00;0.00;;;;;;;2.52;91.10;100098.47;5039994;28;20376;-80
2021/12/27 06:15:24;;;;;;;0.00;0.00;;;;;;;2.50;91.00;100100.09;5040068;28;20034;-81
2021/12/27 06:17:49;;;;;;;0.17;0.17;;;;;;;2.50;90.88;100098.41;5040438;28;20330;-80
2021/12/27 06:20:16;;;;;;;0.07;0.07;;;;;;;2.48;91.06;100089.66;5040516;28;20036;-80
2021/12/27 06:22:53;;;;;;;0.10;0.10;;;;;;;2.51;91.02;100084.66;5040353;28;20021;-79
2021/12/27 06:25:18;;;;;;;0.10;0.10;;;;;;;2.53;90.89;100088.22;5051003;28;20345;-81
2021/12/27 06:27:44;;;;;;;0.10;0.10;;;;;;;2.54;90.95;100084.81;5042737;28;20324;-82
2021/12/27 06:30:12;;;;;;;0.10;0.10;;;;;;;2.56;91.17;100095.22;5059061;28;20119;-80
2021/12/27 06:32:38;;;;;;;0.10;0.10;;;;;;;2.58;91.28;100091.00;5059139;28;20343;-82
2021/12/27 06:35:05;;;;;;;0.10;0.10;;;;;;;2.63;91.17;100093.81;5060399;28;20036;-80
2021/12/27 06:37:31;;;;;;;0.10;0.10;;;;;;;2.71;91.42;100083.03;5059394;28;20021;-80
2021/12/27 06:39:56;;;;;;;0.10;0.10;;;;;;;2.80;91.18;100086.88;5041194;28;20069;-80
2021/12/27 06:42:21;;;;;;;0.20;0.20;;;;;;;2.79;91.26;100092.88;5059622;28;20025;-81
2021/12/27 06:44:47;;;;;;;0.10;0.10;;;;;;;2.82;91.13;100088.72;5058762;28;20038;-82
2021/12/27 06:47:12;;;;;;;0.10;0.10;;;;;;;2.84;91.37;100088.78;5059430;28;20078;-80
2021/12/27 06:49:38;;;;;;;0.10;0.10;;;;;;;2.89;91.19;100087.31;5059907;28;20386;-81
2021/12/27 06:52:04;;;;;;;0.10;0.10;;;;;;;2.95;91.27;100095.38;5059096;28;20056;-81
2021/12/27 06:54:29;;;;;;;0.20;0.20;;;;;;;2.98;91.20;100100.69;5058862;28;20036;-81
2021/12/27 06:56:57;;;;;;;0.20;0.20;;;;;;;2.99;91.34;100102.44;5052029;28;20041;-81
2021/12/27 06:59:23;;;;;;;0.10;0.10;;;;;;;3.00;90.94;100100.75;5039808;28;20026;-80
2021/12/27 07:01:48;;;;;;;0.20;0.20;;;;;;;3.01;91.08;100102.53;5039075;28;20044;-80
2021/12/27 07:04:13;;;;;;;1.90;1.80;;;;;;;2.98;90.48;100097.19;5038953;28;20049;-80
2021/12/27 07:06:39;;;;;;;0.10;0.10;;;;;;;2.95;91.25;100087.63;5039629;28;20026;-80
2021/12/27 07:09:05;;;;;;;0.10;0.10;;;;;;;2.99;91.20;100092.09;5039437;28;20099;-80
2021/12/27 07:11:31;;;;;;;0.20;0.20;;;;;;;3.05;91.38;100090.63;5058109;28;20273;-81
2021/12/27 07:13:57;;;;;;;0.10;0.10;;;;;;;3.10;91.24;100082.25;5058933;28;20056;-79
2021/12/27 07:16:25;;;;;;;0.10;0.10;;;;;;;3.13;91.21;100082.38;5058512;28;20029;-81
2021/12/27 07:18:51;;;;;;;0.10;0.10;;;;;;;3.15;91.17;100083.38;5038717;28;20029;-80
2021/12/27 07:21:17;;;;;;;0.03;0.03;;;;;;;3.26;91.14;100085.56;5040242;28;20284;-82
2021/12/27 07:23:44;;;;;;;0.17;0.17;;;;;;;3.23;91.09;100082.84;5059687;28;20063;-80
2021/12/27 07:26:10;;;;;;;0.00;0.00;;;;;;;3.19;90.98;100070.56;5050945;28;20044;-80
2021/12/27 07:28:35;;;;;;;0.30;0.30;;;;;;;3.14;90.95;100075.53;5047922;28;20025;-81
2021/12/27 07:31:01;;;;;;;0.20;0.20;;;;;;;3.16;91.10;100063.53;5042660;28;20093;-80
2021/12/27 07:33:27;;;;;;;0.07;0.07;;;;;;;3.19;91.10;100066.28;5048349;28;20025;-81
2021/12/27 07:35:52;;;;;;;0.10;0.10;;;;;;;3.21;91.21;100069.81;5039323;28;20041;-80
2021/12/27 07:38:17;;;;;;;0.10;0.10;;;;;;;3.23;91.24;100063.00;5038509;28;20033;-80
2021/12/27 07:40:43;;;;;;;0.10;0.10;;;;;;;3.27;91.22;100067.53;5031928;28;20025;-80
2021/12/27 07:43:08;;;;;;;0.10;0.10;;;;;;;3.27;91.08;100072.69;5047467;28;20048;-79
2021/12/27 07:45:34;;;;;;;0.10;0.10;;;;;;;3.25;91.29;100074.31;5039554;28;20128;-80
2021/12/27 07:48:00;;;;;;;0.10;0.10;;;;;;;3.31;90.94;100073.72;5034405;28;20048;-81
2021/12/27 07:50:25;;;;;;;0.10;0.10;;;;;;;3.35;91.25;100066.97;5048735;28;20082;-81
2021/12/27 07:52:54;;;;;;;0.17;0.17;;;;;;;3.34;91.23;100073.84;5049260;28;20033;-80
2021/12/27 07:55:20;;;;;;;0.10;0.10;;;;;;;3.34;91.25;100070.34;5034617;28;20455;-82
2021/12/27 07:57:46;;;;;;;0.10;0.10;;;;;;;3.33;91.30;100068.59;5056497;28;20040;-81
2021/12/27 08:00:11;;;;;;;0.20;0.20;;;;;;;3.30;91.41;100069.34;5051832;28;20055;-82
2021/12/27 08:02:38;;;;;;;0.20;0.20;;;;;;;3.31;91.25;100063.38;5035908;28;20312;-82
2021/12/27 08:05:04;;;;;;;0.10;0.10;;;;;;;3.31;91.34;100060.78;5055404;28;20115;-80
2021/12/27 08:07:29;;;;;;;0.10;0.10;;;;;;;3.32;91.42;100059.97;5058385;28;20025;-79
2021/12/27 08:09:55;;;;;;;0.10;0.10;;;;;;;3.34;91.25;100068.66;5050321;28;20026;-80
2021/12/27 08:12:20;;;;;;;0.17;0.17;;;;;;;3.40;91.24;100066.38;5049544;28;20042;-79
2021/12/27 08:14:45;;;;;;;0.00;0.00;;;;;;;3.42;91.35;100062.13;5031064;28;20508;-79
2021/12/27 08:17:11;;;;;;;0.00;0.00;;;;;;;3.44;91.57;100052.72;5024796;28;20013;-82
2021/12/27 08:19:37;;;;;;;0.10;0.10;;;;;;;3.48;91.51;100058.94;5023290;28;20467;-80
2021/12/27 08:22:03;;;;;;;0.10;0.10;;;;;;;3.49;91.35;100055.53;5038362;28;20051;-80
2021/12/27 08:24:28;;;;;;;0.10;0.10;;;;;;;3.46;91.31;100050.22;5021411;28;20025;-80
2021/12/27 08:26:54;;;;;;;0.20;0.20;;;;;;;3.48;91.24;100048.56;5037762;28;20108;-79
2021/12/27 08:29:20;;;;;;;0.10;0.10;;;;;;;3.46;91.49;100041.56;5037500;28;20060;-80
2021/12/27 08:31:45;;;;;;;0.10;0.10;;;;;;;3.49;91.40;100049.47;5044622;28;20041;-81
2021/12/27 08:34:10;;;;;;;0.10;0.10;;;;;;;3.51;91.32;100045.25;5057779;28;20329;-80
2021/12/27 08:36:36;;;;;;;0.20;0.20;;;;;;;3.55;91.26;100032.50;5057254;28;20326;-80
2021/12/27 08:39:02;;;;;;;0.10;0.10;;;;;;;3.61;91.60;100038.78;5057567;28;20056;-80
2021/12/27 08:41:28;;;;;;;0.30;0.30;;;;;;;3.64;91.50;100039.78;5057117;28;20017;-81
2021/12/27 08:44:05;;;;;;;0.20;0.20;;;;;;;3.64;91.37;100044.97;5057166;28;20021;-80
2021/12/27 08:46:32;;;;;;;0.10;0.10;;;;;;;3.71;91.50;100039.25;5057102;28;20056;-80
2021/12/27 08:48:58;;;;;;;0.10;0.10;;;;;;;3.72;91.29;100032.34;5057719;28;20090;-81
2021/12/27 08:51:23;;;;;;;0.10;0.10;;;;;;;3.73;91.13;100031.53;5058138;28;20025;-81
2021/12/27 08:53:49;;;;;;;0.00;0.00;;;;;;;3.75;91.44;100029.00;5058552;28;20025;-82
2021/12/27 08:56:15;;;;;;;0.17;0.17;;;;;;;3.74;91.07;100017.75;5048959;28;20043;-80
2021/12/27 08:58:40;;;;;;;0.10;0.10;;;;;;;3.71;91.35;100010.75;5036707;28;20021;-81
2021/12/27 09:01:06;;;;;;;0.00;0.00;;;;;;;3.77;91.21;100010.13;5037615;28;20041;-80
2021/12/27 09:03:33;;;;;;;0.10;0.10;;;;;;;3.75;91.35;100008.28;5037348;28;20104;-80
2021/12/27 09:06:02;;;;;;;0.20;0.20;;;;;;;3.76;91.11;100005.78;5020436;28;20182;-80
2021/12/27 09:08:28;;;;;;;0.10;0.10;;;;;;;3.74;91.39;100011.69;5052170;28;20343;-78
2021/12/27 09:10:57;;;;;;;0.10;0.10;;;;;;;3.73;91.36;100013.38;5055956;28;20104;-79
2021/12/27 09:13:25;;;;;;;0.10;0.10;;;;;;;3.76;91.44;100030.78;5057325;28;20021;-79
2021/12/27 09:15:50;;;;;;;0.20;0.20;;;;;;;3.82;91.46;100034.53;5056517;28;20119;-81
2021/12/27 09:18:16;;;;;;;0.00;0.00;;;;;;;3.87;91.54;100046.78;5056887;28;20351;-80
2021/12/27 09:20:41;;;;;;;0.10;0.10;;;;;;;3.86;91.33;100043.28;5040412;28;20021;-81
2021/12/27 09:23:07;;;;;;;0.20;0.20;;;;;;;3.88;91.59;100045.94;5058679;28;20037;-80
2021/12/27 09:25:33;;;;;;;0.10;0.10;;;;;;;3.90;91.63;100057.25;5044103;28;20178;-81
2021/12/27 09:27:58;;;;;;;0.10;0.10;;;;;;;3.95;91.60;100061.84;5061248;28;20028;-80
2021/12/27 09:30:23;;;;;;;0.10;0.10;;;;;;;3.96;91.43;100057.53;5061448;28;20383;-81
2021/12/27 09:32:50;;;;;;;0.00;0.00;;;;;;;4.01;91.51;100052.53;5060820;28;20287;-80
2021/12/27 09:35:16;;;;;;;0.10;0.10;;;;;;;4.03;91.35;100041.41;5061700;28;20110;-80
2021/12/27 09:37:41;;;;;;;0.10;0.10;;;;;;;4.04;91.54;100040.59;5061343;28;20025;-80
2021/12/27 09:40:07;;;;;;;0.20;0.20;;;;;;;4.04;91.46;100040.59;5044251;28;20387;-80
2021/12/27 09:42:35;;;;;;;0.20;0.20;;;;;;;4.06;91.11;100032.91;5060795;28;20029;-81
2021/12/27 09:45:02;;;;;;;0.10;0.10;;;;;;;4.09;91.65;100030.41;5061557;28;20027;-80
2021/12/27 09:47:28;;;;;;;0.10;0.10;;;;;;;4.04;91.38;100019.88;5060669;28;20159;-79
2021/12/27 09:49:53;;;;;;;0.00;0.00;;;;;;;4.08;91.41;100024.38;5038775;28;20052;-82
2021/12/27 09:52:18;;;;;;;0.10;0.10;;;;;;;4.10;91.37;100024.41;5051236;28;20052;-80
2021/12/27 09:54:46;;;;;;;0.10;0.10;;;;;;;4.14;91.38;100018.56;5023773;28;20442;-80
2021/12/27 09:57:12;;;;;;;0.00;0.00;;;;;;;4.15;91.33;100004.78;5030729;28;20041;-82
2021/12/27 09:59:38;;;;;;;0.10;0.10;;;;;;;4.26;91.40;99998.31;5059909;28;20103;-80
2021/12/27 10:02:03;;;;;;;0.10;0.10;;;;;;;4.33;91.35;99995.97;5060741;28;20024;-80
2021/12/27 10:04:29;;;;;;;0.20;0.20;;;;;;;4.36;91.46;99990.94;5067947;28;20029;-82
2021/12/27 10:06:55;;;;;;;0.00;0.00;;;;;;;4.40;91.40;99978.16;5064410;28;20391;-81
2021/12/27 10:09:21;;;;;;;0.20;0.20;;;;;;;4.45;91.41;99977.41;5063860;28;20032;-79
2021/12/27 10:11:47;;;;;;;0.00;0.00;;;;;;;4.48;91.43;99988.81;5059885;28;20028;-79
2021/12/27 10:14:20;;;;;;;0.10;0.10;;;;;;;4.50;91.49;99994.06;5059785;28;20063;-83
2021/12/27 10:17:10;;;;;;;0.10;0.10;;;;;;;4.53;91.27;99984.69;5060182;28;20410;-81
2021/12/27 10:19:36;;;;;;;0.03;0.03;;;;;;;4.51;91.39;99996.72;5059213;28;20402;-79
2021/12/27 10:22:01;;;;;;;0.17;0.17;;;;;;;4.51;91.31;99994.13;5060583;28;20071;-81
2021/12/27 10:24:27;;;;;;;0.00;0.00;;;;;;;4.50;91.26;100001.84;5042871;28;20074;-82
2021/12/27 10:26:54;;;;;;;0.00;0.00;;;;;;;4.52;91.25;99998.47;5059582;28;20035;-80
2021/12/27 10:29:25;;;;;;;0.10;0.10;;;;;;;4.63;91.27;99998.91;5042486;28;20091;-81
2021/12/27 10:31:55;;;;;;;0.00;0.00;;;;;;;4.69;91.12;99990.47;5054373;28;20071;-81
2021/12/27 10:34:24;;;;;;;0.20;0.20;;;;;;;4.64;91.10;99990.31;5059117;28;20021;-81
2021/12/27 10:37:07;;;;;;;0.00;0.00;;;;;;;4.67;91.28;99990.41;5059139;28;20391;-81
2021/12/27 10:40:08;;;;;;;0.10;0.10;;;;;;;4.68;91.19;99986.97;5059877;28;20029;-81
2021/12/27 10:42:48;;;;;;;0.10;0.10;;;;;;;4.80;91.29;99989.16;5055802;28;20072;-80
2021/12/27 10:45:19;;;;;;;0.03;0.03;;;;;;;4.91;90.95;99991.28;5040717;28;20033;-81
2021/12/27 10:47:47;;;;;;;0.10;0.10;;;;;;;4.83;90.53;99985.81;5023867;28;20044;-77
2021/12/27 10:50:31;;;;;;;0.00;0.00;;;;;;;4.87;91.21;99981.63;5044068;28;20376;-79
2021/12/27 10:52:59;;;;;;;0.10;0.10;;;;;;;4.86;91.02;99972.06;5035685;28;20033;-80
2021/12/27 10:55:38;;;;;;;0.10;0.10;;;;;;;4.88;90.86;99979.09;5042636;28;20064;-79
2021/12/27 10:58:18;;;;;;;0.13;0.13;;;;;;;4.88;91.14;99981.69;5059401;28;20350;-79
2021/12/27 11:00:45;;;;;;;0.10;0.10;;;;;;;4.92;91.07;99982.69;5059979;28;20127;-81
2021/12/27 11:03:30;;;;;;;0.10;0.10;;;;;;;5.00;91.14;99977.78;5059863;28;20029;-80
2021/12/27 11:05:56;;;;;;;0.00;0.00;;;;;;;5.00;90.97;99980.38;5057955;28;20033;-79
2021/12/27 11:08:22;;;;;;;0.10;0.10;;;;;;;5.03;90.94;99978.78;5040852;28;20090;-79
2021/12/27 11:10:49;;;;;;;0.00;0.00;;;;;;;5.04;91.00;99957.19;5039423;28;20394;-79
2021/12/27 11:13:15;;;;;;;0.00;0.00;;;;;;;5.04;91.53;99953.72;5039697;28;20090;-79
2021/12/27 11:15:42;;;;;;;0.00;0.00;;;;;;;5.04;91.18;99944.19;5038776;28;20025;-79
2021/12/27 11:18:08;;;;;;;0.10;0.10;;;;;;;5.06;91.10;99939.94;5039673;28;20116;-81
2021/12/27 11:20:34;;;;;;;0.00;0.00;;;;;;;5.06;91.05;99941.69;5049684;28;20083;-81
2021/12/27 11:23:01;;;;;;;0.00;0.00;;;;;;;5.10;91.18;99938.34;5058822;28;20037;-78
2021/12/27 11:25:38;;;;;;;0.10;0.10;;;;;;;5.15;91.23;99930.72;5057646;28;20039;-79
2021/12/27 11:28:05;;;;;;;0.00;0.00;;;;;;;5.16;91.16;99928.19;5058596;28;20041;-79
2021/12/27 11:30:32;;;;;;;0.10;0.10;;;;;;;5.16;91.29;99924.72;5058382;28;20449;-80
2021/12/27 11:33:06;;;;;;;0.00;0.00;;;;;;;5.17;91.06;99924.75;5058749;28;20108;-80
2021/12/27 11:35:36;;;;;;;0.10;0.10;;;;;;;5.19;91.10;99927.41;5059371;28;20107;-78
2021/12/27 11:38:03;;;;;;;0.10;0.10;;;;;;;5.19;91.11;99925.72;5054478;28;20036;-76